Time;durP1;ratioP1;P1;durP2;ratioP2;P2;SDS_P1;SDS_P2;PMS_P1;PMS_P2;Temp;Humidity;BMP_temperature;BMP_pressure;BME280_temperature;BME280_humidity;BME280_pressure;Samples;Min_cycle;Max_cycle;Signal;HPM_P1;HPM_P2
2024/01/24 16:18:13;;;;;;;41.83;14.82;;;7.20;99.90;;;;;;5059582;27;20444;-56
2024/01/24 16:20:39;;;;;;;38.47;15.73;;;7.00;99.90;;;;;;5062678;28;20454;-51
2024/01/24 16:23:05;;;;;;;43.90;17.85;;;7.00;99.90;;;;;;5063571;28;20039;-53
2024/01/24 16:25:32;;;;;;;47.28;19.90;;;6.90;99.90;;;;;;5064301;28;22847;-49
2024/01/24 16:27:58;;;;;;;43.50;19.25;;;6.90;99.90;;;;;;5060220;28;20035;-50
2024/01/24 16:30:27;;;;;;;49.28;20.98;;;6.90;99.90;;;;;;5063025;28;20033;-51
2024/01/24 16:32:54;;;;;;;72.60;26.25;;;6.80;99.90;;;;;;5063385;28;20064;-52
2024/01/24 16:35:19;;;;;;;73.88;30.23;;;6.80;99.90;;;;;;5063002;28;21505;-50
2024/01/24 16:37:45;;;;;;;93.55;38.17;;;6.90;99.90;;;;;;5058076;28;20048;-48
2024/01/24 16:40:11;;;;;;;55.55;25.23;;;6.90;99.90;;;;;;5062654;28;20052;-48
2024/01/24 16:42:37;;;;;;;53.00;24.17;;;7.00;99.90;;;;;;5063316;28;20034;-51
2024/01/24 16:45:05;;;;;;;50.75;22.70;;;7.10;99.90;;;;;;5063129;28;20035;-51
2024/01/24 16:47:31;;;;;;;48.78;20.48;;;7.10;99.90;;;;;;5059984;28;20127;-50
2024/01/24 16:49:57;;;;;;;39.63;18.13;;;7.20;99.90;;;;;;5061751;28;20085;-51
2024/01/24 16:52:22;;;;;;;31.63;13.10;;;7.30;99.90;;;;;;5062655;28;20434;-49
2024/01/24 16:54:49;;;;;;;33.72;14.32;;;7.30;99.90;;;;;;5060513;28;20036;-53
2024/01/24 16:57:18;;;;;;;28.17;10.48;;;7.30;99.90;;;;;;5059098;28;20552;-52
2024/01/24 16:59:44;;;;;;;30.75;9.65;;;7.30;99.90;;;;;;5061262;28;20140;-52
2024/01/24 17:02:11;;;;;;;20.08;8.40;;;7.30;99.90;;;;;;5062230;28;20058;-50
2024/01/24 17:04:37;;;;;;;15.35;5.97;;;7.30;99.90;;;;;;5061787;28;20846;-53
2024/01/24 17:07:03;;;;;;;14.75;4.88;;;7.30;99.90;;;;;;5058911;28;20038;-51
2024/01/24 17:09:29;;;;;;;18.15;6.57;;;7.40;99.90;;;;;;5060206;28;20042;-48
2024/01/24 17:11:54;;;;;;;20.02;7.45;;;7.40;99.90;;;;;;5061022;28;20024;-51
2024/01/24 17:14:20;;;;;;;16.30;5.97;;;7.40;99.90;;;;;;5062515;28;20078;-50
2024/01/24 17:16:46;;;;;;;16.23;6.03;;;7.50;99.90;;;;;;5059706;28;20071;-50
2024/01/24 17:19:11;;;;;;;19.08;6.65;;;7.60;99.90;;;;;;5062192;28;20037;-52
2024/01/24 17:21:37;;;;;;;18.33;6.32;;;7.60;99.90;;;;;;5062417;28;20044;-50
2024/01/24 17:24:03;;;;;;;14.68;4.50;;;7.80;99.90;;;;;;5062532;28;20120;-50
2024/01/24 17:26:28;;;;;;;19.90;5.43;;;8.00;99.90;;;;;;5060375;28;22063;-55
2024/01/24 17:28:54;;;;;;;15.70;4.32;;;8.00;99.90;;;;;;5052221;28;20036;-52
2024/01/24 17:31:20;;;;;;;15.57;4.28;;;8.00;99.90;;;;;;5048027;28;20029;-49
2024/01/24 17:33:45;;;;;;;13.88;6.20;;;8.00;99.90;;;;;;5049582;28;20028;-50
2024/01/24 17:36:11;;;;;;;15.07;6.32;;;7.90;99.90;;;;;;5046572;28;20041;-52
2024/01/24 17:38:37;;;;;;;16.75;4.82;;;7.80;99.90;;;;;;5048132;28;20032;-51
2024/01/24 17:41:02;;;;;;;9.65;3.17;;;7.70;99.90;;;;;;5048817;28;20033;-50
2024/01/24 17:43:29;;;;;;;13.55;4.28;;;7.70;99.90;;;;;;5049261;28;20583;-52
2024/01/24 17:45:55;;;;;;;12.07;4.15;;;7.70;99.90;;;;;;5048227;28;20028;-51
2024/01/24 17:48:20;;;;;;;14.07;3.45;;;7.60;99.90;;;;;;5046451;28;20434;-52
2024/01/24 17:50:46;;;;;;;15.05;4.32;;;7.60;99.90;;;;;;5047922;28;20036;-49
2024/01/24 17:53:14;;;;;;;13.10;4.53;;;7.60;99.90;;;;;;5048402;28;20025;-48
2024/01/24 17:55:40;;;;;;;19.50;7.40;;;7.60;99.90;;;;;;5048014;28;20541;-47
2024/01/24 17:58:06;;;;;;;19.63;7.32;;;7.60;99.90;;;;;;5045043;28;20044;-50
2024/01/24 18:00:32;;;;;;;25.75;9.13;;;7.50;99.90;;;;;;5047934;28;20056;-52
2024/01/24 18:02:57;;;;;;;24.95;8.80;;;7.50;99.90;;;;;;5047552;28;20120;-52
2024/01/24 18:05:23;;;;;;;19.40;6.57;;;7.40;99.90;;;;;;5048162;28;22150;-49
2024/01/24 18:07:49;;;;;;;16.20;6.10;;;7.40;99.90;;;;;;5044201;28;20112;-49
2024/01/24 18:10:15;;;;;;;15.45;6.55;;;7.50;99.90;;;;;;5047104;28;20361;-53
2024/01/24 18:12:40;;;;;;;21.70;7.28;;;7.50;99.90;;;;;;5048131;28;20052;-49
2024/01/24 18:15:07;;;;;;;16.50;6.70;;;7.50;99.90;;;;;;5047759;28;20040;-51
2024/01/24 18:17:33;;;;;;;26.90;7.23;;;7.60;99.90;;;;;;5044058;28;20087;-52
2024/01/24 18:19:59;;;;;;;16.70;6.40;;;7.60;99.90;;;;;;5048036;28;20044;-49
2024/01/24 18:22:25;;;;;;;21.35;7.35;;;7.50;99.90;;;;;;5046494;28;20063;-49
2024/01/24 18:24:51;;;;;;;19.38;6.75;;;7.50;99.90;;;;;;5047374;28;20550;-48
2024/01/24 18:27:17;;;;;;;22.65;7.30;;;7.50;99.90;;;;;;5044327;28;20024;-50
2024/01/24 18:29:44;;;;;;;26.48;7.85;;;7.50;99.90;;;;;;5046036;28;20036;-54
2024/01/24 18:32:12;;;;;;;18.98;5.55;;;7.60;99.90;;;;;;5047465;28;20096;-50
2024/01/24 18:34:38;;;;;;;16.35;4.60;;;7.50;99.90;;;;;;5048896;28;20133;-49
2024/01/24 18:37:04;;;;;;;20.13;5.07;;;7.50;99.90;;;;;;5047380;28;20147;-50
2024/01/24 18:39:31;;;;;;;15.05;4.72;;;7.50;99.90;;;;;;5046349;28;20037;-53
2024/01/24 18:41:59;;;;;;;14.03;4.67;;;7.60;99.90;;;;;;5044660;28;20040;-50
2024/01/24 18:44:25;;;;;;;15.63;5.47;;;7.60;99.90;;;;;;5046361;28;20692;-51
2024/01/24 18:46:50;;;;;;;17.98;5.68;;;7.60;99.90;;;;;;5042847;28;20085;-50
2024/01/24 18:49:16;;;;;;;13.70;5.88;;;7.50;99.90;;;;;;5045891;28;20033;-51
2024/01/24 18:51:42;;;;;;;17.88;4.90;;;7.50;99.90;;;;;;5045196;28;20553;-49
2024/01/24 18:54:08;;;;;;;18.90;5.97;;;7.50;99.90;;;;;;5046312;28;20444;-50
2024/01/24 18:56:33;;;;;;;17.35;4.43;;;7.50;99.90;;;;;;5042319;28;20831;-51
2024/01/24 18:58:59;;;;;;;20.83;4.40;;;7.50;99.90;;;;;;5045770;28;20086;-50
2024/01/24 19:01:25;;;;;;;15.95;4.05;;;7.50;99.90;;;;;;5042391;28;20426;-49
2024/01/24 19:03:54;;;;;;;15.77;4.43;;;7.50;99.90;;;;;;5046872;28;20021;-48
2024/01/24 19:06:23;;;;;;;11.85;3.55;;;7.60;99.90;;;;;;5043401;28;20139;-52
2024/01/24 19:08:49;;;;;;;15.50;5.00;;;7.60;99.90;;;;;;5046524;28;20024;-51
2024/01/24 19:11:14;;;;;;;13.35;3.92;;;7.60;99.90;;;;;;5045558;28;20032;-48
2024/01/24 19:13:41;;;;;;;10.32;3.90;;;7.70;99.90;;;;;;5046515;28;20024;-52
2024/01/24 19:16:07;;;;;;;17.23;3.85;;;7.70;99.90;;;;;;5043680;28;20060;-52
2024/01/24 19:18:32;;;;;;;15.90;4.55;;;7.80;99.90;;;;;;5046201;28;20035;-51
2024/01/24 19:20:59;;;;;;;15.18;4.07;;;7.80;99.90;;;;;;5045926;28;20402;-57
2024/01/24 19:23:24;;;;;;;13.75;4.15;;;7.80;99.90;;;;;;5046552;28;20493;-51
2024/01/24 19:25:50;;;;;;;12.77;3.95;;;7.90;99.90;;;;;;5045718;28;20036;-51
2024/01/24 19:28:16;;;;;;;14.50;5.07;;;7.90;99.90;;;;;;5042322;28;20039;-52
2024/01/24 19:30:42;;;;;;;16.92;4.57;;;8.00;99.90;;;;;;5045135;28;20452;-52
2024/01/24 19:33:08;;;;;;;16.45;6.72;;;8.10;99.90;;;;;;5046414;28;20028;-50
2024/01/24 19:35:33;;;;;;;15.30;5.13;;;8.10;99.90;;;;;;5045731;28;20032;-51
2024/01/24 19:37:59;;;;;;;18.08;5.50;;;8.10;99.90;;;;;;5042725;28;20184;-49
2024/01/24 19:40:25;;;;;;;20.33;5.97;;;8.10;99.90;;;;;;5045631;28;20040;-50
2024/01/24 19:42:53;;;;;;;16.02;5.55;;;8.00;99.90;;;;;;5045438;28;20177;-54
2024/01/24 19:45:20;;;;;;;15.65;5.57;;;8.10;99.90;;;;;;5046442;28;20021;-51
2024/01/24 19:47:47;;;;;;;13.00;4.25;;;8.10;99.90;;;;;;5042900;28;21511;-52
2024/01/24 19:50:12;;;;;;;;;;;8.10;99.90;;;;;;5046923;28;20033;-51
2024/01/24 19:52:39;;;;;;;14.07;4.80;;;8.20;99.90;;;;;;5045292;28;19913;-52
2024/01/24 19:55:06;;;;;;;15.65;5.03;;;8.20;99.90;;;;;;5045441;28;20085;-53
2024/01/24 19:57:31;;;;;;;19.55;6.15;;;8.20;99.90;;;;;;5042052;28;20032;-49
2024/01/24 19:59:57;;;;;;;16.67;5.57;;;8.20;99.90;;;;;;5045172;28;20031;-49
2024/01/24 20:02:23;;;;;;;12.93;4.72;;;8.20;99.90;;;;;;5044729;28;20450;-52
2024/01/24 20:04:50;;;;;;;13.70;4.72;;;8.20;99.90;;;;;;5045027;28;20032;-49
2024/01/24 20:07:16;;;;;;;19.00;5.25;;;8.10;99.90;;;;;;5042986;28;20039;-50
2024/01/24 20:09:42;;;;;;;16.50;5.53;;;8.10;99.90;;;;;;5043013;28;20036;-50
2024/01/24 20:12:08;;;;;;;15.85;4.70;;;8.10;99.90;;;;;;5043571;28;20028;-51
2024/01/24 20:14:35;;;;;;;19.35;4.85;;;8.20;99.90;;;;;;5045678;28;20079;-51
2024/01/24 20:17:01;;;;;;;20.40;6.57;;;8.10;99.90;;;;;;5041729;28;20082;-58
2024/01/24 20:19:27;;;;;;;16.45;4.88;;;8.10;99.90;;;;;;5045260;28;20064;-48
2024/01/24 20:21:53;;;;;;;15.32;5.47;;;8.10;99.90;;;;;;5044938;28;20167;-50
2024/01/24 20:24:21;;;;;;;20.05;5.68;;;8.10;99.90;;;;;;5044752;28;20499;-52
2024/01/24 20:26:47;;;;;;;24.95;6.47;;;8.00;99.90;;;;;;5042294;28;20102;-50
2024/01/24 20:29:13;;;;;;;24.03;7.10;;;7.90;99.90;;;;;;5045198;28;20036;-51
2024/01/24 20:31:39;;;;;;;19.40;6.30;;;7.90;99.90;;;;;;5045474;28;20101;-55
2024/01/24 20:34:05;;;;;;;22.38;5.97;;;7.90;99.90;;;;;;5046174;28;20567;-51
2024/01/24 20:36:30;;;;;;;17.95;5.43;;;7.80;99.90;;;;;;5043316;28;20492;-50
2024/01/24 20:38:56;;;;;;;18.80;4.85;;;7.80;99.90;;;;;;5046019;28;20539;-52
2024/01/24 20:41:22;;;;;;;20.08;5.72;;;7.80;99.90;;;;;;5044964;28;20043;-52
2024/01/24 20:43:48;;;;;;;18.38;5.90;;;7.90;99.90;;;;;;5044890;28;20111;-49
2024/01/24 20:46:13;;;;;;;18.83;6.63;;;7.80;99.90;;;;;;5042610;28;20131;-53
2024/01/24 20:48:39;;;;;;;15.55;5.53;;;7.80;99.90;;;;;;5045251;28;20455;-52
2024/01/24 20:51:05;;;;;;;16.35;4.80;;;7.90;99.90;;;;;;5044638;28;20028;-50
2024/01/24 20:53:31;;;;;;;16.63;4.78;;;8.00;99.90;;;;;;5045220;28;20025;-52
2024/01/24 20:55:57;;;;;;;18.85;5.30;;;8.00;99.90;;;;;;5043741;28;20046;-51
2024/01/24 20:58:23;;;;;;;21.95;5.70;;;8.00;99.90;;;;;;5043165;28;20064;-51
2024/01/24 21:00:48;;;;;;;25.15;6.57;;;8.00;99.90;;;;;;5045165;28;20075;-50
2024/01/24 21:03:17;;;;;;;14.95;5.78;;;8.00;99.90;;;;;;5045189;28;20299;-50
2024/01/24 21:05:50;;;;;;;20.63;5.20;;;8.00;99.90;;;;;;5046679;28;20037;-50
2024/01/24 21:08:15;;;;;;;21.48;5.97;;;8.00;99.90;;;;;;5044246;28;20044;-51
2024/01/24 21:10:41;;;;;;;20.98;5.75;;;8.00;99.90;;;;;;5048017;28;20033;-48
2024/01/24 21:13:07;;;;;;;15.52;5.78;;;8.00;99.90;;;;;;5047578;28;20123;-51
2024/01/24 21:15:32;;;;;;;18.88;5.15;;;7.90;99.90;;;;;;5048479;28;20033;-49
2024/01/24 21:17:58;;;;;;;24.67;6.18;;;8.00;99.90;;;;;;5043736;28;20071;-52
2024/01/24 21:20:25;;;;;;;16.08;4.63;;;8.00;99.90;;;;;;5047731;28;20119;-51
2024/01/24 21:22:50;;;;;;;20.33;5.53;;;8.00;99.90;;;;;;5048231;28;20829;-50
2024/01/24 21:25:16;;;;;;;25.05;6.22;;;7.90;99.90;;;;;;5048488;28;20056;-52
2024/01/24 21:27:42;;;;;;;17.52;6.05;;;7.90;99.90;;;;;;5043985;28;20039;-50
2024/01/24 21:30:09;;;;;;;21.17;4.65;;;7.90;99.90;;;;;;5047438;28;20044;-53
2024/01/24 21:32:35;;;;;;;16.80;3.83;;;7.90;99.90;;;;;;5046794;28;20541;-51
2024/01/24 21:35:02;;;;;;;23.65;4.90;;;8.00;99.90;;;;;;5046654;28;20032;-52
2024/01/24 21:37:27;;;;;;;19.95;4.53;;;8.00;99.90;;;;;;5046154;28;20087;-51
2024/01/24 21:39:53;;;;;;;16.42;3.83;;;8.00;99.90;;;;;;5047352;28;20130;-50
2024/01/24 21:42:18;;;;;;;18.30;5.07;;;7.90;99.90;;;;;;5048558;28;20044;-49
2024/01/24 21:44:44;;;;;;;15.15;4.60;;;8.00;99.90;;;;;;5049154;28;20513;-50
2024/01/24 21:47:11;;;;;;;20.15;5.03;;;7.90;99.90;;;;;;5044252;28;21982;-49
2024/01/24 21:49:40;;;;;;;13.38;5.20;;;7.90;99.90;;;;;;5047848;28;20068;-52
2024/01/24 21:52:06;;;;;;;14.65;3.05;;;7.80;99.90;;;;;;5047735;28;20083;-51
2024/01/24 21:54:32;;;;;;;23.80;5.82;;;7.70;99.90;;;;;;5048535;28;20051;-53
2024/01/24 21:56:58;;;;;;;18.98;4.55;;;7.60;99.90;;;;;;5046157;28;20041;-52
2024/01/24 21:59:23;;;;;;;15.85;4.65;;;7.60;99.90;;;;;;5047045;28;20107;-49
2024/01/24 22:01:49;;;;;;;8.27;2.75;;;7.60;99.90;;;;;;5045632;28;20495;-52
2024/01/24 22:04:15;;;;;;;13.13;3.92;;;7.60;99.90;;;;;;5048298;28;20047;-49
2024/01/24 22:06:40;;;;;;;13.20;3.90;;;7.60;99.90;;;;;;5043742;28;20035;-52
2024/01/24 22:09:06;;;;;;;14.60;3.85;;;7.50;99.90;;;;;;5047487;28;20087;-52
2024/01/24 22:11:34;;;;;;;14.52;3.85;;;7.50;99.90;;;;;;5047306;28;22575;-51
2024/01/24 22:14:00;;;;;;;13.00;4.00;;;7.50;99.90;;;;;;5048052;28;20025;-51
2024/01/24 22:16:26;;;;;;;19.92;4.30;;;7.40;99.90;;;;;;5044109;28;20060;-51
2024/01/24 22:18:51;;;;;;;16.75;4.45;;;7.40;99.90;;;;;;5045561;28;20089;-52
2024/01/24 22:21:19;;;;;;;18.25;4.57;;;7.30;99.90;;;;;;5047633;28;20064;-54
2024/01/24 22:23:45;;;;;;;12.40;3.67;;;7.30;99.90;;;;;;5047095;28;20043;-51
2024/01/24 22:26:11;;;;;;;24.42;7.03;;;7.20;99.90;;;;;;5044158;28;20028;-49
2024/01/24 22:28:36;;;;;;;22.42;7.05;;;7.20;99.90;;;;;;5047880;28;20426;-47
2024/01/24 22:31:02;;;;;;;14.27;3.75;;;7.20;99.90;;;;;;5048179;28;20031;-48
2024/01/24 22:33:28;;;;;;;17.42;4.43;;;7.10;99.90;;;;;;5051261;28;20063;-51
2024/01/24 22:35:54;;;;;;;20.38;4.65;;;6.90;99.90;;;;;;5055482;28;20656;-50
2024/01/24 22:38:19;;;;;;;14.27;4.50;;;6.80;99.90;;;;;;5054470;28;20072;-49
2024/01/24 22:40:45;;;;;;;17.70;4.32;;;6.80;99.90;;;;;;5055583;28;21829;-51
2024/01/24 22:43:11;;;;;;;11.70;3.38;;;6.70;99.90;;;;;;5054192;28;20127;-53
2024/01/24 22:45:37;;;;;;;12.50;3.05;;;6.80;99.90;;;;;;5053620;28;20423;-51
2024/01/24 22:48:03;;;;;;;11.43;2.88;;;6.70;99.90;;;;;;5043361;28;20043;-51
2024/01/24 22:50:29;;;;;;;14.25;2.92;;;6.70;99.90;;;;;;5046650;28;20071;-53
2024/01/24 22:52:55;;;;;;;8.88;2.53;;;6.70;99.90;;;;;;5045510;28;20997;-51
2024/01/24 22:55:20;;;;;;;11.48;2.88;;;6.70;99.90;;;;;;5045827;28;20482;-50
2024/01/24 22:57:47;;;;;;;11.23;3.10;;;6.70;99.90;;;;;;5043272;28;20055;-51
2024/01/24 23:00:17;;;;;;;12.27;3.20;;;6.70;99.90;;;;;;5046708;28;20163;-50
2024/01/24 23:02:45;;;;;;;19.05;4.75;;;6.70;99.90;;;;;;5045595;28;20517;-49
2024/01/24 23:05:11;;;;;;;18.35;4.47;;;6.80;99.90;;;;;;5045688;28;22212;-49
2024/01/24 23:07:38;;;;;;;12.45;3.70;;;6.80;99.90;;;;;;5042629;28;20025;-51
2024/01/24 23:10:04;;;;;;;11.80;3.55;;;6.80;99.90;;;;;;5046699;28;20040;-46
2024/01/24 23:12:30;;;;;;;16.40;4.85;;;6.70;99.90;;;;;;5045914;28;20017;-52
2024/01/24 23:14:56;;;;;;;18.05;4.75;;;6.70;99.90;;;;;;5046502;28;20486;-48
2024/01/24 23:17:21;;;;;;;15.13;3.75;;;6.70;99.90;;;;;;5043309;28;20059;-51
2024/01/24 23:19:49;;;;;;;14.63;3.95;;;6.70;99.90;;;;;;5046084;28;20043;-52
2024/01/24 23:22:15;;;;;;;19.83;4.75;;;6.70;99.90;;;;;;5045589;28;20041;-53
2024/01/24 23:24:41;;;;;;;17.23;5.05;;;6.70;99.90;;;;;;5045522;28;20035;-49
2024/01/24 23:27:07;;;;;;;17.60;4.97;;;6.70;99.90;;;;;;5042472;28;20039;-48
2024/01/24 23:29:33;;;;;;;18.05;5.07;;;6.70;99.90;;;;;;5045394;28;20414;-59
2024/01/24 23:31:58;;;;;;;20.10;4.88;;;6.70;99.90;;;;;;5045859;28;20064;-47
2024/01/24 23:34:24;;;;;;;16.77;5.60;;;6.80;99.90;;;;;;5045882;28;20402;-55
2024/01/24 23:36:50;;;;;;;17.10;4.25;;;6.90;99.90;;;;;;5046041;28;20376;-52
2024/01/24 23:39:15;;;;;;;16.02;4.65;;;6.90;99.90;;;;;;5048147;28;20754;-50
2024/01/24 23:41:41;;;;;;;18.38;3.92;;;6.90;99.90;;;;;;5047719;28;20036;-51
2024/01/24 23:44:07;;;;;;;16.80;3.72;;;7.00;99.90;;;;;;5045143;28;20051;-49
2024/01/24 23:46:36;;;;;;;14.52;3.47;;;7.00;99.90;;;;;;5043116;28;20025;-52
2024/01/24 23:49:02;;;;;;;18.25;4.10;;;7.00;99.90;;;;;;5046349;28;20177;-53
2024/01/24 23:51:27;;;;;;;16.77;4.32;;;7.00;99.90;;;;;;5046396;28;20048;-51
2024/01/24 23:53:53;;;;;;;15.63;3.72;;;7.10;99.90;;;;;;5045024;28;20252;-51
2024/01/24 23:56:19;;;;;;;14.15;3.90;;;7.10;99.90;;;;;;5042848;28;20041;-52
